Tiempo atmosférico en la estación meteorológica de Chandrexa De Queixa, Ourense (990 m.)



Fecha
DESCASC
Temp. máxima en grados centígrados (hora)
DESCASC
Temp. mínima en grados centígrados (hora)
DESCASC
Temp. media en grados centígrados
DESCASC
Racha de viento máxima en m/sg (hora)
DESCASC
Velocidad máxima media en intervalos de 10 minutos(hora)
DESCASC
Precipitaciones diarias en mm
DESCASC
Precipitaciones de 00:00 a 06:00 en mm
DESCASC
Precipitaciones de 06:00 a 12:00 en mm
DESCASC
Precipitaciones de 12:00 a 18:00 en mm
DESCASC
Precipitaciones de 18:00 a 24:00 en mm
DESCASC
05-12-2019 10.1 (15:20) -2 (07:50) 4.1 6.39 (14:40) 2.78 (14:40) 0 0 0 0 0
04-12-2019 7.8 (14:50) -3.6 (02:10) 2.1 7.22 (04:00) 3.33 (06:00) 0 0 0 0 0
03-12-2019 7.9 (15:40) -4.2 (09:10) 1.9 3.06 (12:40) 1.67 (12:40) 0 0 0 0 0
02-12-2019 8.4 (15:10) 0.1 (00:00) 4.2 8.06 (14:20) 4.17 (21:30) 0 0 0 0 0
01-12-2019 6.5 (16:20) 2.2 (00:00) 4.4 14.72 (02:00) 8.33 (02:00) 12.4 7 5.4 0 0
30-11-2019 10.8 (03:30) 5 (00:00) 7.9 17.78 (02:50) 10.83 (02:50) 16.8 7 7.4 0.4 2
29-11-2019 13.8 (15:40) 4.5 (00:00) 9.2 8.06 (15:50) 5 (15:50) 1.4 0 0 0 1.4
28-11-2019 11.5 (13:00) 7.8 (00:00) 9.7 21.11 (18:00) 12.5 (18:00) 9.6 0.6 0 7.4 1.6
27-11-2019 7.8 (15:00) 6 (00:00) 6.9 16.39 (23:50) 8.89 (23:10) 8.2 0 3.4 3.2 1.6
26-11-2019 12.3 (13:40) 5.8 (00:00) 9.1 26.67 (16:00) 16.39 (14:50) 9.6 0.2 0.8 4.8 3.8
25-11-2019 11.1 (14:30) 7.6 (08:00) 9.4 13.89 (21:40) 9.72 (22:40) 0.4 0.4 0 0 0
24-11-2019 9.8 (21:50) 3.1 (00:00) 6.5 17.22 (18:10) 11.67 (17:50) 6 0 0 0 6
23-11-2019 6.7 (15:10) 2.2 (00:00) 4.4 15.83 (02:40) 7.78 (03:20) 15 5.4 4.8 2.4 2.4
22-11-2019 9.1 (11:30) 3.2 (00:00) 6.2 27.5 (06:50) 18.61 (06:50) 34.4 4 6.2 14 10.2
21-11-2019 7.9 (14:20) 2.6 (00:00) 5.3 13.33 (23:00) 8.89 (23:50) 0.6 0.4 0.2 0 0
20-11-2019 8.5 (13:10) 3.7 (19:10) 6.1 12.22 (11:40) 8.61 (15:20) 2 0.2 0.8 0.8 0.2
19-11-2019 7.6 (14:50) -1.2 (-00:0) 3.2 9.17 (18:30) 5.56 (18:30) 2 0 0 0 2
18-11-2019 5.8 (13:10) -1.2 (-00:0) 2.3 5.83 (00:30) 3.06 (00:30) 0.8 0.8 0 0 0
17-11-2019 6.2 (11:20) 2.8 (00:00) 4.5 11.39 (13:50) 4.72 (12:40) 10.6 0.4 6.8 1.4 2
16-11-2019 3.9 (13:20) -0.2 (00:00) 1.9 7.22 (14:30) 2.5 (23:30) 12.8 0.2 3.8 8.2 0.6
15-11-2019 2 (15:20) -0.3 (00:00) 0.8 12.22 (00:40) 5.83 (00:30) 9.8 1.4 0.4 7.6 0.4
14-11-2019 5.8 (00:00) 0.1 (00:00) 3 17.22 (16:50) 8.61 (17:10) 34 4.4 0.8 20.2 8.6
13-11-2019 10.7 (02:00) 5.4 (00:00) 8 18.06 (23:50) 7.5 (23:50) 29 26 0.4 0 2.6
12-11-2019 10.3 (23:40) 2 (00:00) 6.2 14.72 (17:20) 8.61 (17:20) 18.4 0 0.4 1.6 16.4
11-11-2019 9.2 (07:30) 2.2 (23:50) 5.7 8.89 (12:50) 3.61 (13:50) 6.2 2.8 3.4 0 0
10-11-2019 3.9 (23:59) 1.4 (00:00) 2.7 10.83 (11:30) 5 (10:30) 19.8 2.8 2.8 9.8 4.4
09-11-2019 8.8 (13:30) 3 (00:00) 5.9 15.28 (22:10) 6.11 (21:30) 11.8 0.8 6.2 1 3.8
08-11-2019 5.5 (14:30) 0.4 (00:00) 3 9.17 (13:50) 3.33 (14:50) 10 3.4 4.4 2 0.2
07-11-2019 6.8 (00:00) 0.6 (00:00) 3.7 10.28 (11:50) 4.17 (01:20) 9.4 1.4 0.4 4.6 3
06-11-2019 9.3 (15:10) 5.2 (00:00) 7.3 9.44 (23:50) 5.28 (17:00) 6.2 1.6 0.4 0.6 3.6

Gráficas

Temp. máximas Temp. mínimas Temp. medias Precipitaciones Rachas de viento máximas Velocidades máximas media en intervalos de 10 minutos

Datos horarios

Fecha y hora oficial Temperatura (ºC) Velocidad del viento (km/h) Dirección del viento Racha (km/h) Dirección de racha Precipitación (mm) Presión (hPa) Tendencia (hPa) Humedad (%)
2019-12-05 23:00:00 1.6 2 Oeste 5 Oeste 0 -- -- 98
2019-12-05 22:00:00 2.1 4 Sudoeste 6 Sur 0 -- -- 96
2019-12-05 21:00:00 2.6 0 Calma 8 Sudoeste 0 -- -- 95
2019-12-05 20:00:00 3.7 3 Sudoeste 10 Oeste 0 -- -- 90
2019-12-05 19:00:00 5.2 4 Sudoeste 7 Oeste 0 -- -- 83
2019-12-05 18:00:00 7.5 0 Calma 11 Norte 0 -- -- 76
2019-12-05 17:00:00 8.7 10 Norte 16 Norte 0 -- -- 71
2019-12-05 16:00:00 9.6 6 Norte 17 Norte 0 -- -- 68
2019-12-05 15:00:00 9.8 7 Nordeste 23 Norte 0 -- -- 67
2019-12-05 14:00:00 9.2 5 Norte 11 Norte 0 -- -- 70
2019-12-05 13:00:00 7.5 0 Calma 6 Este 0 -- -- 74
2019-12-05 12:00:00 4.5 4 Norte 8 Norte 0 -- -- 84
2019-12-05 11:00:00 1.7 2 Sur 6 Sur 0 -- -- 100
2019-12-05 10:00:00 -0.7 0 Calma 5 Oeste 0 -- -- 100
2019-12-05 09:00:00 -1.8 2 Sudoeste 5 Sudoeste 0 -- -- 100
2019-12-05 08:00:00 -2 2 Sudoeste 4 Sudoeste 0 -- -- 100
2019-12-05 07:00:00 -1.9 3 Sudoeste 6 Sur 0 -- -- 100
2019-12-05 06:00:00 -1.7 0 Calma 4 Noroeste 0 -- -- 100
2019-12-05 05:00:00 -1.5 2 Sudoeste 6 Sudoeste 0 -- -- 100
2019-12-05 04:00:00 -1.2 5 Oeste 8 Sudoeste 0 -- -- 100
2019-12-05 03:00:00 -1.1 0 Calma 4 Sudoeste 0 -- -- 100
2019-12-05 02:00:00 -1.1 2 Sudoeste 4 Sudoeste 0 -- -- 99
2019-12-05 01:00:00 -0.8 0 Calma 5 Oeste 0 -- -- 99
2019-12-05 00:00:00 -0.5 0 Calma 9 Sudoeste 0 -- -- 98
2019-12-04 23:00:00 -0.3 2 Oeste 6 Sudoeste 0 -- -- 98
2019-12-04 22:00:00 0 3 Sur 5 Sudoeste 0 -- -- 95
2019-12-04 21:00:00 0.7 3 Sur 4 Sur 0 -- -- 92
2019-12-04 20:00:00 1.6 5 Sur 7 Sur 0 -- -- 88
2019-12-04 19:00:00 3 2 Sur 6 Sur 0 -- -- 82
2019-12-04 18:00:00 4.5 2 Sudeste 6 Nordeste 0 -- -- 76
2019-12-04 17:00:00 6.4 0 Calma 10 Noroeste 0 -- -- 67
2019-12-04 16:00:00 7.2 6 Norte 18 Norte 0 -- -- 65
2019-12-04 15:00:00 7.8 8 Norte 22 Norte 0 -- -- 64
2019-12-04 14:00:00 6.7 5 Nordeste 15 Nordeste 0 -- -- 68
2019-12-04 13:00:00 4.7 2 Nordeste 6 Este 0 -- -- 79
2019-12-04 12:00:00 3.4 3 Sur 8 Sur 0 -- -- 86
2019-12-04 11:00:00 0.5 3 Sur 5 Sur 0 -- -- 96
2019-12-04 10:00:00 -2.2 0 Calma 4 Sur 0 -- -- 100
2019-12-04 09:00:00 -3.3 0 Calma 6 Norte 0 -- -- 99
2019-12-04 08:00:00 -3.3 0 Calma 15 Norte 0 -- -- 99
2019-12-04 07:00:00 -3.1 5 Norte 15 Norte 0 -- -- 100
2019-12-04 06:00:00 -3.5 12 Nordeste 16 Nordeste 0 -- -- 99
2019-12-04 05:00:00 -2 5 Este 24 Sur 0 -- -- 94
2019-12-04 04:00:00 -2 10 Sudeste 26 Sur 0 -- -- 98
2019-12-04 03:00:00 -3.2 4 Norte 10 Nordeste 0 -- -- 99
2019-12-04 02:00:00 -3.4 0 Calma 6 Oeste 0 -- -- 99
2019-12-04 01:00:00 -3.2 2 Sur 4 Sur 0 -- -- 97
2019-12-04 00:00:00 -2.4 0 Calma 4 Oeste 0 -- -- 99
2019-12-03 23:00:00 -2.1 0 Calma 3 Sur 0 -- -- 97
2019-12-03 22:00:00 -1.6 0 Calma 3 Sudoeste 0 -- -- 95
2019-12-03 21:00:00 -0.9 2 Sudoeste 5 Sur 0 -- -- 92
2019-12-03 20:00:00 0 4 Sur 9 Sur 0 -- -- 86
2019-12-03 19:00:00 1.6 4 Sudoeste 8 Sudoeste 0 -- -- 81
2019-12-03 18:00:00 4 0 Calma 6 Sur 0 -- -- 69
2019-12-03 17:00:00 5.9 2 Nordeste 8 Nordeste 0 -- -- 60
2019-12-03 16:00:00 7.5 3 Norte 8 Norte 0 -- -- 54
2019-12-03 15:00:00 7 4 Norte 8 Nordeste 0 -- -- 58
2019-12-03 14:00:00 5.6 4 Nordeste 10 Nordeste 0 -- -- 62
2019-12-03 13:00:00 4 3 Norte 11 Norte 0 -- -- 73
2019-12-03 12:00:00 2.6 2 Norte 6 Sudeste 0 -- -- 75
2019-12-03 11:00:00 -0.4 3 Sur 5 Sur 0 -- -- 91
2019-12-03 10:00:00 -3.2 2 Sudoeste 4 Sudoeste 0 -- -- 99
2019-12-03 09:00:00 -4.1 2 Sur 5 Sur 0 -- -- 98
2019-12-03 08:00:00 -3.7 0 Calma 5 Sur 0 -- -- 99
2019-12-03 07:00:00 -3.5 3 Sur 6 Sudoeste 0 -- -- 99
2019-12-03 06:00:00 -3.3 3 Sur 6 Sudoeste 0 -- -- 98
2019-12-03 05:00:00 -2.6 3 Sudoeste 7 Oeste 0 -- -- 99
2019-12-03 04:00:00 -2.5 3 Sur 5 Sur 0 -- -- 98
2019-12-03 03:00:00 -1.9 2 Sur 9 Sudoeste 0 -- -- 98
2019-12-03 02:00:00 -1.6 2 Sudoeste 6 Sudoeste 0 -- -- 96
2019-12-03 01:00:00 -0.9 3 Sudoeste 6 Sur 0 -- -- 95
2019-12-03 00:00:00 0.1 3 Sur 6 Sudoeste 0 -- -- 93
2019-12-02 23:00:00 1.6 0 Calma 4 Norte 0 -- -- 86
2019-12-02 22:00:00 3.4 3 Noroeste 25 Nordeste 0 -- -- 76
2019-12-02 21:00:00 4 8 Nordeste 18 Nordeste 0 -- -- 75
2019-12-02 20:00:00 3.9 7 Este 24 Nordeste 0 -- -- 79
2019-12-02 19:00:00 5.7 10 Nordeste 23 Nordeste 0 -- -- 72
2019-12-02 18:00:00 6.2 7 Nordeste 17 Este 0 -- -- 72
2019-12-02 17:00:00 7.2 6 Este 26 Nordeste 0 -- -- 71
2019-12-02 16:00:00 8.1 8 Nordeste 25 Noroeste 0 -- -- 66
2019-12-02 15:00:00 8.2 6 Norte 29 Norte 0 -- -- 67
2019-12-02 14:00:00 7.3 7 Norte 15 Norte 0 -- -- 83
2019-12-02 13:00:00 5.9 7 Nordeste 24 Nordeste 0 -- -- 83
2019-12-02 12:00:00 6.1 5 Norte 16 Norte 0 -- -- 81
2019-12-02 11:00:00 4.5 2 Norte 7 Norte 0 -- -- 86
2019-12-02 10:00:00 1.7 0 Calma 9 Norte 0 -- -- 96
2019-12-02 09:00:00 0.3 0 Calma 6 Noroeste 0 -- -- 98
2019-12-02 08:00:00 0.6 0 Calma 11 Noroeste 0 -- -- 97
2019-12-02 07:00:00 0.5 0 Calma 8 Noroeste 0 -- -- 100
2019-12-02 06:00:00 0.8 0 Calma 9 Nordeste 0 -- -- 100
2019-12-02 05:00:00 0.9 0 Calma 5 Este 0 -- -- 100
2019-12-02 04:00:00 1.3 0 Calma 10 Noroeste 0 -- -- 100
2019-12-02 03:00:00 1.9 3 Nordeste 17 Nordeste 0 -- -- 100
2019-12-02 02:00:00 2 4 Nordeste 17 Nordeste 0 -- -- 100
2019-12-02 01:00:00 1.8 2 Nordeste 14 Nordeste 0 -- -- 98
2019-12-02 00:00:00 2.2 5 Nordeste 23 Nordeste 0 -- -- 95
2019-12-01 23:00:00 3.3 10 Norte 26 Norte 0 -- -- 94
2019-12-01 22:00:00 3.7 5 Sur 30 Nordeste 0 -- -- 96
2019-12-01 21:00:00 3.9 11 Norte 30 Norte 0 -- -- 98
2019-12-01 20:00:00 4.4 8 Norte 24 Norte 0 -- -- 98
2019-12-01 19:00:00 4.4 3 Nordeste 23 Nordeste 0 -- -- 93
2019-12-01 18:00:00 5.3 5 Norte 21 Norte 0 -- -- 91
2019-12-01 17:00:00 6.1 8 Norte 23 Norte 0 -- -- 89
2019-12-01 16:00:00 6.4 4 Nordeste 21 Norte 0 -- -- 92
2019-12-01 15:00:00 6.4 8 Norte 32 Norte 0 -- -- 93
2019-12-01 14:00:00 6 4 Norte 20 Norte 0 -- -- 97
2019-12-01 13:00:00 5.4 4 Norte 15 Norte 0 -- -- 100
2019-12-01 12:00:00 5.1 5 Norte 16 Nordeste 0 -- -- 100
2019-12-01 11:00:00 4.5 8 Norte 18 Norte 0 -- -- 100
2019-12-01 10:00:00 3.5 2 Este 8 Este 0.2 -- -- 100
2019-12-01 09:00:00 3.1 0 Calma 6 Nordeste 0.2 -- -- 100
2019-12-01 08:00:00 3.1 4 Nordeste 10 Nordeste 2.6 -- -- 100
2019-12-01 07:00:00 3.4 3 Nordeste 13 Sur 2.4 -- -- 100
2019-12-01 06:00:00 3.6 9 Sur 21 Sur 0.4 -- -- 98
2019-12-01 05:00:00 3.4 6 Sudoeste 35 Sur 1 -- -- 99
2019-12-01 04:00:00 3.5 21 Sur 41 Sur 1 -- -- 97
2019-12-01 03:00:00 4.2 12 Sudoeste 48 Sur 2.8 -- -- 98
2019-12-01 02:00:00 4.7 30 Sur 53 Sur 0.6 -- -- 95
2019-12-01 01:00:00 4.7 18 Sur 41 Sudoeste 1.2 -- -- 96
2019-12-01 00:00:00 5 16 Sudoeste 35 Sur 1.4 -- -- 95
2019-11-30 23:00:00 5 19 Sudoeste 38 Sudoeste 0.6 -- -- 93
2019-11-30 22:00:00 5.3 23 Sudoeste 45 Sur 0 -- -- 91
2019-11-30 21:00:00 5.5 22 Sudoeste 41 Sudoeste 0 -- -- 92
2019-11-30 20:00:00 5.8 18 Sur 36 Sudoeste 0 -- -- 90
2019-11-30 19:00:00 5.7 18 Sudoeste 41 Sur 0 -- -- 88
2019-11-30 18:00:00 6 9 Sudoeste 23 Sur 0 -- -- 87
2019-11-30 17:00:00 6.1 12 Oeste 49 Sudoeste 0 -- -- 89
2019-11-30 16:00:00 6.5 16 Sudoeste 39 Sudoeste 0.4 -- -- 91
2019-11-30 15:00:00 8.3 22 Sudoeste 45 Sudoeste 0 -- -- 76
2019-11-30 14:00:00 8.5 20 Sudoeste 43 Sudoeste 0 -- -- 75
2019-11-30 13:00:00 7.5 15 Oeste 39 Sudoeste 0 -- -- 85
2019-11-30 12:00:00 6.5 17 Sudoeste 50 Oeste 0.2 -- -- 89
2019-11-30 11:00:00 7.5 16 Sudoeste 46 Oeste 0.2 -- -- 94
2019-11-30 10:00:00 7.1 21 Oeste 54 Oeste 0.4 -- -- 98
2019-11-30 09:00:00 7.5 21 Sudoeste 54 Sudoeste 2.8 -- -- 97
2019-11-30 08:00:00 9.8 21 Sudoeste 53 Sudoeste 3.4 -- -- 98
2019-11-30 07:00:00 10.2 29 Sudoeste 56 Sur 0.4 -- -- 96
2019-11-30 06:00:00 10.2 20 Sudoeste 51 Sudoeste 4.8 -- -- 99
2019-11-30 05:00:00 10.8 24 Sudoeste 53 Sudoeste 0.4 -- -- 97
2019-11-30 04:00:00 10.7 30 Sudoeste 57 Sur 1 -- -- 98
2019-11-30 03:00:00 10.6 29 Sudoeste 64 Sur 0.4 -- -- 98
2019-11-30 02:00:00 10.6 29 Sur 49 Sudoeste 0.2 -- -- 98
2019-11-30 01:00:00 10.4 19 Sur 33 Sur 0.2 -- -- 100
2019-11-30 00:00:00 10.3 7 Sur 20 Sudoeste 0.4 -- -- 100
2019-11-29 23:00:00 10.3 14 Sur 26 Sur 0 -- -- 100
2019-11-29 22:00:00 9.9 15 Sur 27 Sur 0.2 -- -- 99
2019-11-29 21:00:00 9.6 9 Sudoeste 22 Sur 0.6 -- -- 97
2019-11-29 20:00:00 10.1 7 Sur 12 Sur 0.2 -- -- 93
2019-11-29 19:00:00 10.4 8 Sur 16 Sur 0 -- -- 83
2019-11-29 18:00:00 10.8 10 Sur 23 Sur 0 -- -- 79
2019-11-29 17:00:00 11.9 12 Sur 23 Sur 0 -- -- 74
2019-11-29 16:00:00 13.7 15 Sur 29 Sur 0 -- -- 65
2019-11-29 15:00:00 12 9 Sur 15 Sudoeste 0 -- -- 69
2019-11-29 14:00:00 11.5 11 Sudoeste 23 Sudoeste 0 -- -- 72
2019-11-29 13:00:00 9.8 2 Sudoeste 5 Sur 0 -- -- 91
2019-11-29 12:00:00 8.4 0 Calma 5 Sur 0 -- -- 99
2019-11-29 11:00:00 6.2 0 Calma 6 Noroeste 0 -- -- 100
2019-11-29 10:00:00 5.3 5 Sur 9 Sur 0 -- -- 100
2019-11-29 09:00:00 4.8 3 Oeste 8 Oeste 0 -- -- 100
2019-11-29 08:00:00 4.7 4 Sudoeste 8 Sudoeste 0 -- -- 100
2019-11-29 07:00:00 4.5 8 Sur 10 Sur 0 -- -- 100
2019-11-29 06:00:00 4.7 4 Sur 7 Sudoeste 0 -- -- 100
2019-11-29 05:00:00 5.2 3 Sur 9 Sur 0 -- -- 100
2019-11-29 04:00:00 5.4 4 Sur 13 Sur 0 -- -- 100
2019-11-29 03:00:00 5.4 5 Sur 14 Sur 0 -- -- 100
2019-11-29 02:00:00 6.1 8 Sur 13 Sur 0 -- -- 98
2019-11-29 01:00:00 7.7 5 Sur 10 Sudoeste 0 -- -- 97
2019-11-29 00:00:00 8.8 2 Sudeste 6 Nordeste 0 -- -- 98
2019-11-28 23:00:00 9 3 Sur 19 Sudoeste 0 -- -- 98
2019-11-28 22:00:00 9.7 2 Sudeste 22 Sudoeste 0 -- -- 100
2019-11-28 21:00:00 9.8 11 Sudoeste 36 Oeste 0.4 -- -- 99
2019-11-28 20:00:00 10.4 13 Noroeste 38 Sudoeste 0.6 -- -- 100
2019-11-28 19:00:00 10.4 25 Sudoeste 64 Sudoeste 0.6 -- -- 100
2019-11-28 18:00:00 10.2 45 Sudoeste 76 Sudoeste 1.6 -- -- 99
2019-11-28 17:00:00 9.6 26 Sudoeste 62 Sur 4 -- -- 98
2019-11-28 16:00:00 9.6 31 Sudoeste 73 Sudoeste 0.8 -- -- 95
2019-11-28 15:00:00 9.3 39 Sudoeste 69 Sur 0.6 -- -- 94
2019-11-28 14:00:00 9.4 26 Sudoeste 56 Sur 0.4 -- -- 93
2019-11-28 13:00:00 11.5 19 Sur 44 Sur 0 -- -- 80
2019-11-28 12:00:00 10.1 24 Sudoeste 47 Sudoeste 0 -- -- 87
2019-11-28 11:00:00 10.6 19 Sudoeste 52 Sudoeste 0 -- -- 88
2019-11-28 10:00:00 9.9 28 Sur 49 Sudoeste 0 -- -- 94
2019-11-28 09:00:00 9.8 23 Sudoeste 47 Sur 0 -- -- 91
2019-11-28 08:00:00 9.4 19 Sur 42 Sur 0 -- -- 96
2019-11-28 07:00:00 10 26 Sudoeste 56 Sur 0 -- -- 90
2019-11-28 06:00:00 9.6 32 Sur 59 Sudoeste 0 -- -- 92
2019-11-28 05:00:00 9.4 28 Sudoeste 58 Sur 0 -- -- 98
2019-11-28 04:00:00 9.2 28 Sur 57 Sur 0 -- -- 99
2019-11-28 03:00:00 8.8 26 Sudoeste 51 Sur 0.6 -- -- 100
2019-11-28 02:00:00 8.3 23 Sur 46 Sudoeste 0 -- -- 100
2019-11-28 01:00:00 8.1 26 Sudoeste 53 Sudoeste 0 -- -- 100
2019-11-28 00:00:00 7.8 30 Sudoeste 59 Sur 0 -- -- 100
2019-11-27 23:00:00 7.6 32 Sur 49 Sudoeste 0.2 -- -- 100
2019-11-27 22:00:00 7.3 22 Sudoeste 44 Sur 0.4 -- -- 100
2019-11-27 21:00:00 7.1 22 Sur 45 Sur 0.6 -- -- 99
2019-11-27 20:00:00 7 17 Sudoeste 47 Oeste 0.2 -- -- 98
2019-11-27 19:00:00 7 22 Sudoeste 42 Sudoeste 0.2 -- -- 98
2019-11-27 18:00:00 7.2 23 Sudoeste 46 Sudoeste 0 -- -- 95
2019-11-27 17:00:00 7.2 10 Sur 39 Oeste 0 -- -- 95
2019-11-27 16:00:00 7 16 Oeste 51 Sudoeste 0.6 -- -- 99
2019-11-27 15:00:00 7.8 14 Sudoeste 47 Sudoeste 0.8 -- -- 93
2019-11-27 14:00:00 7.4 8 Oeste 40 Sudoeste 1.2 -- -- 97
2019-11-27 06:00:00 -- -- -- -- -- -- -- -- --
2019-11-27 05:00:00 -- -- -- -- -- -- -- -- --
2019-11-27 04:00:00 7 22 Sudoeste 51 Sudoeste 0 -- -- 91
2019-11-27 03:00:00 6.7 18 Sur 47 Sudoeste 0 -- -- 93
2019-11-27 02:00:00 6.5 18 Sudoeste 46 Sur 0 -- -- 94
2019-11-27 01:00:00 6.4 25 Sudoeste 55 Sudoeste 0 -- -- 90
2019-11-27 00:00:00 6 19 Sudoeste 62 Sudoeste 0 -- -- 91
2019-11-26 23:00:00 6 23 Sudoeste 58 Sudoeste 0 -- -- 89
2019-11-26 22:00:00 5.8 21 Sudoeste 58 Oeste 0 -- -- 90
2019-11-26 21:00:00 6.4 32 Sudoeste 67 Sudoeste 1.4 -- -- 96
2019-11-26 20:00:00 6.6 25 Sudoeste 73 Oeste 0 -- -- 93
2019-11-26 19:00:00 7.5 25 Oeste 72 Sudoeste 2.4 -- -- 96
2019-11-26 18:00:00 8.2 35 Sudoeste 73 Sudoeste 4.8 -- -- 96
2019-11-26 17:00:00 10.1 49 Sudoeste 83 Sudoeste 0 -- -- 82
2019-11-26 16:00:00 11 57 Sudoeste 96 Sur 0 -- -- 80
2019-11-26 15:00:00 10.9 51 Sur 89 Sur 0 -- -- 78
2019-11-26 14:00:00 12 53 Sur 94 Sudoeste 0 -- -- 72
2019-11-26 13:00:00 11.8 50 Sudoeste 76 Sudoeste 0 -- -- 70
2019-11-26 12:00:00 11.3 40 Sur 73 Sur 0 -- -- 78
2019-11-26 11:00:00 10.6 29 Sur 53 Sur 0 -- -- 83
2019-11-26 10:00:00 9.7 19 Sudoeste 54 Sudoeste 0 -- -- 90
2019-11-26 09:00:00 9.7 30 Sudoeste 55 Sudoeste 0 -- -- 88
2019-11-26 08:00:00 10.7 29 Sudoeste 78 Sudoeste 0.2 -- -- 89
2019-11-26 07:00:00 10.8 38 Sur 58 Sudoeste 0.6 -- -- 99
2019-11-26 06:00:00 10.4 39 Sur 71 Sur 0.2 -- -- 98
2019-11-26 05:00:00 10.4 53 Sur 76 Sur 0 -- -- 96
2019-11-26 04:00:00 10.8 39 Sur 74 Sur 0 -- -- 95
2019-11-26 03:00:00 10.9 37 Sur 63 Sur 0 -- -- 94
2019-11-26 02:00:00 10.2 31 Sur 50 Sur 0 -- -- 96
2019-11-26 01:00:00 10.5 30 Sur 43 Sur 0 -- -- 92
2019-11-26 00:00:00 9.8 21 Sur 42 Sur 0 -- -- 93
2019-11-25 23:00:00 9.5 29 Sur 48 Sur 0 -- -- 86
2019-11-25 22:00:00 9.2 31 Sur 50 Sudoeste 0 -- -- 85
2019-11-25 21:00:00 9 27 Sur 49 Sur 0 -- -- 87
2019-11-25 20:00:00 8.7 9 Sur 31 Sur 0 -- -- 86
2019-11-25 19:00:00 8.5 9 Sur 21 Sur 0 -- -- 88
2019-11-25 18:00:00 9.3 13 Sudoeste 36 Sudoeste 0 -- -- 83
2019-11-25 17:00:00 9.9 21 Sudoeste 41 Oeste 0 -- -- 80
2019-11-25 16:00:00 10.9 21 Sudoeste 40 Sudoeste 0 -- -- 80
2019-11-25 15:00:00 10.6 21 Sudoeste 37 Sudoeste 0 -- -- 83
2019-11-25 14:00:00 10.9 15 Sudoeste 35 Sur 0 -- -- 85
2019-11-25 13:00:00 10.1 18 Sur 33 Sudoeste 0 -- -- 87
2019-11-25 12:00:00 9.2 16 Sur 28 Sur 0 -- -- 90
2019-11-25 11:00:00 8.8 10 Sudoeste 27 Sudoeste 0 -- -- 92
2019-11-25 10:00:00 8.5 17 Sudoeste 31 Sudoeste 0 -- -- 96
2019-11-25 09:00:00 7.8 15 Sur 28 Sudeste 0 -- -- 94
2019-11-25 08:00:00 7.6 16 Sur 31 Sudoeste 0 -- -- 92
2019-11-25 07:00:00 8 20 Sudoeste 48 Oeste 0 -- -- 96
2019-11-25 06:00:00 8.4 23 Sudoeste 45 Oeste 0.2 -- -- 97
2019-11-25 05:00:00 9.2 14 Sudoeste 47 Sur 0 -- -- 98
2019-11-25 04:00:00 8.9 30 Sudoeste 42 Sur 0 -- -- 95
2019-11-25 03:00:00 8.5 15 Sur 39 Sudoeste 0 -- -- 93
2019-11-25 02:00:00 8.8 14 Oeste 45 Oeste 0 -- -- 96
2019-11-25 01:00:00 9.4 20 Sudoeste 37 Sudoeste 0.2 -- -- 98
2019-11-25 00:00:00 9.5 22 Sudoeste 35 Sudoeste 0.6 -- -- 98
2019-11-24 23:00:00 9.7 8 Sudoeste 32 Sudoeste 2.8 -- -- 100
2019-11-24 22:00:00 9.8 20 Sudoeste 40 Sur 1 -- -- 100
2019-11-24 21:00:00 9.4 18 Sur 53 Sur 0.8 -- -- 100
2019-11-24 20:00:00 8.7 29 Sur 61 Sur 0.6 -- -- 99
2019-11-24 19:00:00 8.9 30 Sur 62 Sur 0.2 -- -- 98
2019-11-24 18:00:00 8 41 Sur 59 Sur 0 -- -- 98
2019-11-24 17:00:00 8 36 Sur 54 Sur 0 -- -- 97
2019-11-24 16:00:00 7.9 34 Sur 54 Sur 0 -- -- 95
2019-11-24 15:00:00 7.9 34 Sur 51 Sur 0 -- -- 96
2019-11-24 14:00:00 7.4 32 Sur 48 Sur 0 -- -- 94
2019-11-24 13:00:00 6.8 32 Sur 44 Sur 0 -- -- 94
2019-11-24 12:00:00 6.5 20 Sur 37 Sur 0 -- -- 94
2019-11-24 11:00:00 5.8 15 Sur 28 Sudoeste 0 -- -- 92
2019-11-24 10:00:00 4.8 17 Sur 34 Sur 0 -- -- 96
2019-11-24 09:00:00 4.2 13 Sur 21 Sur 0 -- -- 97
2019-11-24 08:00:00 3.7 15 Sur 26 Sur 0 -- -- 99
2019-11-24 07:00:00 3.5 9 Sur 19 Sur 0 -- -- 97
2019-11-24 06:00:00 3.7 10 Sur 17 Sur 0 -- -- 99
2019-11-24 05:00:00 3.7 4 Oeste 12 Sudoeste 0 -- -- 98
2019-11-24 04:00:00 3.2 2 Sudoeste 14 Sudoeste 0 -- -- 98
2019-11-24 03:00:00 3.4 6 Sudoeste 17 Sudoeste 0 -- -- 98
2019-11-24 02:00:00 3.6 4 Sudoeste 13 Sudoeste 0 -- -- 99
2019-11-24 01:00:00 3.8 3 Sudoeste 27 Oeste 0 -- -- 99
2019-11-24 00:00:00 4 7 Oeste 19 Oeste 0 -- -- 100
2019-11-23 23:00:00 4.1 3 Noroeste 27 Oeste 0.2 -- -- 99
2019-11-23 22:00:00 4.2 6 Noroeste 24 Noroeste 0 -- -- 100
2019-11-23 21:00:00 4.2 11 Noroeste 27 Norte 0 -- -- 100
2019-11-23 20:00:00 4.4 13 Noroeste 35 Noroeste 0.4 -- -- 100
2019-11-23 19:00:00 4.5 12 Noroeste 25 Noroeste 1.8 -- -- 99
2019-11-23 18:00:00 4.8 8 Oeste 24 Oeste 0.4 -- -- 98
2019-11-23 17:00:00 5.3 5 Oeste 24 Oeste 0.2 -- -- 97
2019-11-23 16:00:00 5.6 10 Noroeste 36 Noroeste 0 -- -- 93
2019-11-23 15:00:00 6.4 8 Oeste 32 Norte 0.2 -- -- 95
2019-11-23 14:00:00 5 11 Noroeste 31 Noroeste 1.2 -- -- 99
2019-11-23 13:00:00 5.1 6 Oeste 30 Noroeste 0.4 -- -- 99
2019-11-23 12:00:00 4 13 Noroeste 31 Noroeste 0.6 -- -- 99
2019-11-23 11:00:00 3.7 13 Noroeste 36 Noroeste 0.6 -- -- 100
2019-11-23 10:00:00 3.4 10 Noroeste 31 Oeste 1 -- -- 100
2019-11-23 09:00:00 3.2 6 Noroeste 32 Oeste 0 -- -- 100
2019-11-23 08:00:00 3 15 Noroeste 37 Noroeste 1.4 -- -- 100
2019-11-23 07:00:00 2.6 12 Noroeste 35 Noroeste 1.2 -- -- 100
2019-11-23 06:00:00 2.3 19 Noroeste 42 Noroeste 0 -- -- 99
2019-11-23 05:00:00 2.3 19 Noroeste 40 Noroeste 0 -- -- 97
2019-11-23 04:00:00 2.6 22 Noroeste 52 Oeste 0.2 -- -- 98
2019-11-23 03:00:00 2.8 22 Noroeste 57 Oeste 0.4 -- -- 99
2019-11-23 02:00:00 3.1 21 Noroeste 42 Noroeste 2.6 -- -- 100
2019-11-23 01:00:00 3.1 11 Oeste 39 Oeste 2.2 -- -- 100
2019-11-23 00:00:00 3.2 16 Oeste 45 Oeste 2.4 -- -- 100
2019-11-22 23:00:00 4 16 Oeste 53 Oeste 2.6 -- -- 100
2019-11-22 22:00:00 4.6 26 Sudoeste 61 Oeste 1 -- -- 99
2019-11-22 21:00:00 5.1 17 Oeste 63 Oeste 1.8 -- -- 99
2019-11-22 20:00:00 5.6 24 Oeste 72 Sudoeste 0 -- -- 99
2019-11-22 19:00:00 5.9 26 Oeste 62 Sudoeste 2.4 -- -- 99
2019-11-22 18:00:00 6.3 27 Sudoeste 62 Sudoeste 3 -- -- 99
2019-11-22 17:00:00 6 30 Sudoeste 58 Sudoeste 2 -- -- 99
2019-11-22 16:00:00 5.1 17 Sudoeste 51 Oeste 6 -- -- 98
2019-11-22 15:00:00 7 22 Sudoeste 57 Sudoeste 0.6 -- -- 88
2019-11-22 14:00:00 6.9 27 Sudoeste 57 Sudoeste 0 -- -- 92
2019-11-22 13:00:00 6.9 28 Sudoeste 62 Sudoeste 2.4 -- -- 94
2019-11-22 12:00:00 8.4 23 Sur 61 Sur 2 -- -- 98
2019-11-22 11:00:00 8.2 36 Sudoeste 69 Sur 2.8 -- -- 98
2019-11-22 10:00:00 8.2 50 Sur 94 Sur 0.6 -- -- 98
2019-11-22 09:00:00 7.9 62 Sur 88 Sur 0.4 -- -- 97
2019-11-22 08:00:00 7.3 64 Sur 96 Sur 0 -- -- 97
2019-11-22 07:00:00 6.7 62 Sur 99 Sur 0.4 -- -- 96
2019-11-22 06:00:00 5.9 54 Sur 88 Sur 0.4 -- -- 95
2019-11-22 05:00:00 5.3 53 Sur 90 Sur 1.4 -- -- 97
2019-11-22 04:00:00 4.7 47 Sur 72 Sur 1.2 -- -- 95
2019-11-22 03:00:00 4.8 40 Sur 66 Sur 1 -- -- 94
2019-11-22 02:00:00 5.1 35 Sur 64 Sur 0 -- -- 92
2019-11-22 01:00:00 5.1 29 Sur 62 Sudoeste 0 -- -- 91
2019-11-22 00:00:00 4.9 30 Sur 46 Sur 0 -- -- 93
2019-11-21 23:00:00 5.1 28 Sur 48 Sur 0 -- -- 88
2019-11-21 22:00:00 4.5 22 Sur 39 Sur 0 -- -- 87
2019-11-21 21:00:00 4.1 14 Sur 27 Sur 0 -- -- 85
2019-11-21 20:00:00 4.1 12 Sur 22 Sur 0 -- -- 87
2019-11-21 19:00:00 4.2 6 Sur 29 Sudoeste 0 -- -- 89
2019-11-21 18:00:00 4.9 18 Sur 29 Sur 0 -- -- 83
2019-11-21 17:00:00 6.5 9 Sur 25 Sudoeste 0 -- -- 84
2019-11-21 16:00:00 7.2 9 Sur 22 Sudoeste 0 -- -- 83
2019-11-21 15:00:00 6.6 13 Sudoeste 33 Sur 0 -- -- 83
2019-11-21 14:00:00 7.1 6 Sur 26 Sudoeste 0 -- -- 86
2019-11-21 13:00:00 5.9 12 Sudoeste 24 Sudoeste 0 -- -- 86
2019-11-21 12:00:00 5.7 10 Sur 24 Sur 0 -- -- 81
2019-11-21 11:00:00 5.3 14 Sudoeste 26 Sudoeste 0 -- -- 81
2019-11-21 10:00:00 3.4 10 Sur 17 Sur 0 -- -- 91
2019-11-21 09:00:00 2.7 4 Sur 18 Sudoeste 0 -- -- 94
2019-11-21 08:00:00 3 3 Sudoeste 18 Sudoeste 0.2 -- -- 96
2019-11-21 07:00:00 3.4 5 Oeste 24 Sudoeste 0 -- -- 96
2019-11-21 06:00:00 3.5 6 Oeste 23 Oeste 0 -- -- 97
2019-11-21 05:00:00 3.6 12 Sur 27 Sudoeste 0 -- -- 95
2019-11-21 04:00:00 4.1 18 Sudoeste 40 Sudoeste 0 -- -- 93
2019-11-21 03:00:00 4 21 Sudoeste 44 Sur 0.2 -- -- 97
2019-11-21 02:00:00 3.7 18 Sur 27 Sudoeste 0.2 -- -- 98
2019-11-21 01:00:00 3.4 16 Sur 33 Sur 0 -- -- 97
2019-11-21 00:00:00 3.9 18 Sudoeste 26 Sudoeste 0 -- -- 93
2019-11-20 23:00:00 4.1 11 Sur 23 Sudoeste 0 -- -- 95
2019-11-20 22:00:00 4 12 Sudoeste 21 Sudoeste 0 -- -- 97
2019-11-20 21:00:00 3.9 11 Sur 30 Sur 0 -- -- 96
2019-11-20 20:00:00 3.9 14 Sur 31 Sur 0 -- -- 98
2019-11-20 19:00:00 3.8 17 Sur 25 Sur 0.2 -- -- 98
2019-11-20 18:00:00 4.2 15 Sur 24 Sur 0.4 -- -- 98
2019-11-20 17:00:00 4.7 18 Sur 33 Sur 0.4 -- -- 95
2019-11-20 16:00:00 6.3 20 Sur 44 Sur 0 -- -- 89
2019-11-20 15:00:00 7.2 27 Sur 42 Sur 0 -- -- 81
2019-11-20 14:00:00 7.2 23 Sur 36 Sur 0 -- -- 75
2019-11-20 13:00:00 8.4 26 Sur 37 Sur 0 -- -- 81
2019-11-20 12:00:00 6 19 Sur 44 Sur 0 -- -- 94
2019-11-20 11:00:00 5 17 Sudeste 26 Sudeste 0.2 -- -- 97
2019-11-20 10:00:00 4.4 14 Sur 21 Sur 0.2 -- -- 97
2019-11-20 09:00:00 4.5 3 Sur 25 Sudeste 0.2 -- -- 99
2019-11-20 08:00:00 4.7 18 Sur 27 Sudeste 0 -- -- 99
2019-11-20 07:00:00 4.6 10 Sur 21 Sur 0.2 -- -- 100
2019-11-20 06:00:00 4.6 2 Sudoeste 13 Sudoeste 0 -- -- 100
2019-11-20 05:00:00 4.6 5 Sudoeste 14 Sur 0 -- -- 100
2019-11-20 04:00:00 4.6 4 Oeste 10 Oeste 0 -- -- 100
2019-11-20 03:00:00 4.6 0 Calma 22 Sudeste 0.2 -- -- 100
2019-11-20 02:00:00 4.4 5 Sur 17 Sur 0 -- -- 100
2019-11-20 01:00:00 4.4 10 Sur 23 Sur 0 -- -- 100
2019-11-20 00:00:00 3.9 10 Sudoeste 22 Oeste 0 -- -- 100
2019-11-19 23:00:00 3.6 6 Sudoeste 12 Sudoeste 0.2 -- -- 100
2019-11-19 22:00:00 3.3 7 Norte 12 Norte 0.2 -- -- 100
2019-11-19 21:00:00 3.7 4 Norte 14 Noroeste 1.4 -- -- 100
2019-11-19 20:00:00 5.1 7 Sur 16 Sudeste 0.2 -- -- 98
2019-11-19 19:00:00 6 12 Sudeste 33 Sur 0 -- -- 94
2019-11-19 18:00:00 6.3 14 Sur 26 Sur 0 -- -- 91
2019-11-19 17:00:00 6.8 7 Sudoeste 21 Sur 0 -- -- 91
2019-11-19 16:00:00 6.6 6 Sudoeste 15 Sudoeste 0 -- -- 88
2019-11-19 15:00:00 7.5 2 Oeste 19 Sur 0 -- -- 87
2019-11-19 14:00:00 7.2 9 Sudoeste 21 Sudoeste 0 -- -- 80
2019-11-19 13:00:00 5.4 3 Oeste 12 Oeste 0 -- -- 83
2019-11-19 12:00:00 3.5 2 Oeste 10 Sudoeste 0 -- -- 93
2019-11-19 11:00:00 3.2 3 Sudoeste 9 Sudoeste 0 -- -- 96
2019-11-19 10:00:00 1.2 0 Calma 4 Sudoeste 0 -- -- 100
2019-11-19 09:00:00 0.1 0 Calma 4 Nordeste 0 -- -- 100
2019-11-19 08:00:00 0.2 2 Norte 6 Oeste 0 -- -- 100
2019-11-19 07:00:00 -0.1 0 Calma 3 Norte 0 -- -- 100
2019-11-19 06:00:00 0.2 2 Norte 8 Noroeste 0 -- -- 98
2019-11-19 05:00:00 0.6 3 Noroeste 14 Sudoeste 0 -- -- 100
2019-11-19 04:00:00 -0.2 2 Sur 6 Sudoeste 0 -- -- 100
2019-11-19 03:00:00 -0.7 0 Calma 6 Sudoeste 0 -- -- 100
2019-11-19 02:00:00 -0.8 3 Sur 5 Sudoeste 0 -- -- 100
2019-11-19 01:00:00 -1.2 0 Calma 2 Sudoeste 0 -- -- 100
2019-11-19 00:00:00 -1.2 0 Calma 5 Sudoeste 0 -- -- 100
2019-11-18 23:00:00 -0.7 2 Sur 5 Sudoeste 0 -- -- 100
2019-11-18 22:00:00 -0.2 2 Sudoeste 10 Oeste 0 -- -- 100
2019-11-18 21:00:00 0.5 5 Sur 9 Sur 0 -- -- 97
2019-11-18 20:00:00 1.7 4 Sur 8 Sur 0 -- -- 95
2019-11-18 19:00:00 3.3 0 Calma 4 Norte 0 -- -- 92
2019-11-18 18:00:00 4.6 0 Calma 7 Norte 0 -- -- 87
2019-11-18 17:00:00 5 3 Norte 9 Nordeste 0 -- -- 87
2019-11-18 16:00:00 5.1 0 Calma 13 Norte 0 -- -- 90
2019-11-18 15:00:00 5.3 4 Norte 15 Nordeste 0 -- -- 86
2019-11-18 14:00:00 5.6 5 Nordeste 13 Nordeste 0 -- -- 89
2019-11-18 13:00:00 5.2 3 Nordeste 17 Nordeste 0 -- -- 89
2019-11-18 12:00:00 4.2 7 Nordeste 17 Nordeste 0 -- -- 95
2019-11-18 11:00:00 3 0 Calma 9 Este 0 -- -- 100
2019-11-18 10:00:00 2.4 2 Norte 12 Norte 0 -- -- 100
2019-11-18 09:00:00 2.3 3 Norte 12 Norte 0 -- -- 100
2019-11-18 08:00:00 2.3 3 Norte 13 Norte 0 -- -- 100
2019-11-18 07:00:00 2.2 5 Norte 15 Norte 0 -- -- 100
2019-11-18 06:00:00 2.3 4 Norte 16 Norte 0.2 -- -- 100
2019-11-18 05:00:00 2.3 6 Norte 17 Norte 0.4 -- -- 100
2019-11-18 04:00:00 2.2 7 Norte 16 Norte 0 -- -- 100
2019-11-18 03:00:00 2.3 6 Norte 16 Norte 0 -- -- 100
2019-11-18 02:00:00 2.5 6 Norte 18 Norte 0 -- -- 100
2019-11-18 01:00:00 2.9 6 Norte 21 Nordeste 0.2 -- -- 100
2019-11-18 00:00:00 3.1 8 Norte 24 Norte 0.2 -- -- 100
2019-11-17 23:00:00 3.2 6 Norte 22 Noroeste 0.2 -- -- 100
2019-11-17 22:00:00 3.3 6 Norte 27 Oeste 0.8 -- -- 100
2019-11-17 21:00:00 3.3 6 Noroeste 23 Noroeste 0.2 -- -- 100
2019-11-17 20:00:00 3.3 11 Noroeste 28 Noroeste 0 -- -- 100
2019-11-17 19:00:00 3.3 10 Noroeste 29 Noroeste 0.6 -- -- 99
2019-11-17 18:00:00 3.9 11 Noroeste 28 Noroeste 0 -- -- 96
2019-11-17 17:00:00 4.4 8 Norte 27 Noroeste 0 -- -- 97
2019-11-17 16:00:00 4.8 12 Noroeste 33 Noroeste 0.4 -- -- 96
2019-11-17 15:00:00 5.5 12 Noroeste 31 Oeste 0.4 -- -- 98
2019-11-17 14:00:00 5.3 15 Noroeste 41 Oeste 0.2 -- -- 97
2019-11-17 13:00:00 5.5 13 Noroeste 32 Noroeste 0.4 -- -- 100
2019-11-17 12:00:00 6 10 Noroeste 26 Oeste 0.8 -- -- 100
2019-11-17 11:00:00 6.1 6 Oeste 14 Noroeste 2 -- -- 100
2019-11-17 10:00:00 5.7 4 Oeste 16 Oeste 1 -- -- 100
2019-11-17 09:00:00 5.6 5 Sudoeste 21 Oeste 1.4 -- -- 100
2019-11-17 08:00:00 6.1 6 Oeste 21 Sudoeste 1.6 -- -- 100
2019-11-17 07:00:00 5.9 10 Sudoeste 28 Sudoeste 0 -- -- 100
2019-11-17 06:00:00 5.5 8 Oeste 19 Oeste 0 -- -- 100
2019-11-17 05:00:00 5.1 7 Sur 14 Sudoeste 0 -- -- 100
2019-11-17 04:00:00 4.5 5 Sudoeste 12 Sur 0 -- -- 100
2019-11-17 03:00:00 3.7 9 Sur 14 Sur 0.2 -- -- 100
2019-11-17 02:00:00 3.2 8 Sur 12 Sur 0 -- -- 100
2019-11-17 01:00:00 2.9 4 Sur 12 Sur 0.2 -- -- 100
2019-11-17 00:00:00 2.8 6 Sur 14 Sur 0 -- -- 100
2019-11-16 23:00:00 2.6 3 Sur 8 Sudeste 0 -- -- 100
2019-11-16 22:00:00 2.5 3 Sur 5 Sur 0 -- -- 100
2019-11-16 21:00:00 2.2 6 Sur 13 Sur 0 -- -- 100
2019-11-16 20:00:00 1.9 5 Sudeste 12 Sur 0.4 -- -- 100
2019-11-16 19:00:00 2 5 Sur 13 Sudoeste 0.2 -- -- 99
2019-11-16 18:00:00 2.3 5 Sudoeste 17 Sudoeste 0.4 -- -- 97
2019-11-16 17:00:00 3.1 5 Oeste 18 Oeste 0.6 -- -- 94
2019-11-16 16:00:00 3.6 6 Oeste 18 Noroeste 1.4 -- -- 90
2019-11-16 15:00:00 2.9 6 Oeste 26 Oeste 1.4 -- -- 98
2019-11-16 14:00:00 3.5 4 Oeste 16 Sudoeste 2.4 -- -- 95
2019-11-16 13:00:00 2.9 4 Oeste 14 Oeste 2 -- -- 100
2019-11-16 12:00:00 1.8 5 Oeste 18 Oeste 2 -- -- 100
2019-11-16 11:00:00 1.7 0 Calma 8 Noroeste 1.2 -- -- 100
2019-11-16 10:00:00 0.9 0 Calma 4 Noroeste 0.4 -- -- 100
2019-11-16 09:00:00 0.4 0 Calma 6 Norte 0.2 -- -- 100
2019-11-16 08:00:00 0.2 0 Calma 0 Calma 0 -- -- 100
2019-11-16 07:00:00 0.3 0 Calma -- -- 0 -- -- 100
2019-11-16 06:00:00 0.2 0 Calma -- -- 0.2 -- -- 100
2019-11-16 05:00:00 0.1 0 Calma -- -- 0 -- -- 100
2019-11-16 04:00:00 0.1 0 Calma -- -- 0 -- -- 100
2019-11-16 03:00:00 0.1 0 Calma -- -- 0 -- -- 100
2019-11-16 02:00:00 -0.2 0 Calma -- -- 0 -- -- 100
2019-11-16 01:00:00 -0.2 0 Calma -- -- 0 -- -- 100
2019-11-16 00:00:00 -0.1 0 Calma -- -- 0 -- -- 100
2019-11-15 23:00:00 0 0 Calma -- -- 0.2 -- -- 100
2019-11-15 22:00:00 -0.1 0 Calma 9 Nordeste 0 -- -- 100
2019-11-15 21:00:00 0 0 Calma 14 Nordeste 0 -- -- 100
2019-11-15 20:00:00 0.1 0 Calma -- -- 0.2 -- -- 100
2019-11-15 19:00:00 -0.2 0 Calma 19 Norte 0 -- -- 100
2019-11-15 18:00:00 0.1 6 Norte 21 Norte 0.4 -- -- 100
2019-11-15 17:00:00 0.5 6 Norte 19 Norte 1 -- -- 100
2019-11-15 16:00:00 0.6 3 Norte 42 Noroeste 2 -- -- 100
2019-11-15 15:00:00 1.3 4 Norte 25 Norte 2 -- -- 98
2019-11-15 14:00:00 0.9 4 Norte 15 Nordeste 1.4 -- -- 100
2019-11-15 13:00:00 0.5 8 Norte 26 Norte 0.8 -- -- 100
2019-11-15 12:00:00 0.2 9 Norte 26 Noroeste 0.2 -- -- 100
2019-11-15 11:00:00 0 8 Norte 22 Norte 0 -- -- 100
2019-11-15 10:00:00 -0.1 8 Norte 26 Noroeste 0.2 -- -- 100
2019-11-15 09:00:00 -0.1 10 Norte 23 Noroeste 0 -- -- 100
2019-11-15 08:00:00 -0.2 10 Norte 39 Norte 0 -- -- 100
2019-11-15 07:00:00 -0.2 13 Norte 33 Norte 0 -- -- 100
2019-11-15 06:00:00 -0.2 6 Norte 19 Noroeste 0.2 -- -- 100
2019-11-15 05:00:00 -0.2 8 Norte 28 Norte 0 -- -- 100
2019-11-15 04:00:00 -0.2 6 Norte 26 Noroeste 0 -- -- 100
2019-11-15 03:00:00 -0.1 11 Norte 35 Norte 0 -- -- 100
2019-11-15 02:00:00 0.2 6 Norte 34 Norte 0.2 -- -- 100
2019-11-15 01:00:00 0.6 13 Norte 44 Noroeste 1 -- -- 100
2019-11-15 00:00:00 0.8 15 Noroeste 37 Noroeste 1.4 -- -- 100
2019-11-14 23:00:00 0.9 17 Noroeste 33 Norte 0.8 -- -- 100
2019-11-14 22:00:00 0.6 9 Noroeste 35 Noroeste 0.4 -- -- 100
2019-11-14 21:00:00 1.2 16 Noroeste 48 Noroeste 1.8 -- -- 100
2019-11-14 20:00:00 1 16 Noroeste 43 Norte 2.6 -- -- 100
2019-11-14 19:00:00 0.6 14 Noroeste 50 Noroeste 1.6 -- -- 100
2019-11-14 18:00:00 1.2 14 Norte 56 Noroeste 2.8 -- -- 100
2019-11-14 17:00:00 2.4 24 Noroeste 62 Noroeste 3.2 -- -- 100
2019-11-14 16:00:00 2.1 20 Noroeste 49 Noroeste 4.4 -- -- 100
2019-11-14 15:00:00 1.7 15 Norte 60 Noroeste 5 -- -- 100
2019-11-14 14:00:00 1.3 9 Noroeste 32 Noroeste 3.2 -- -- 100
2019-11-14 13:00:00 1 6 Oeste 35 Sudoeste 1.6 -- -- 100
2019-11-14 12:00:00 0.8 14 Sudoeste 34 Oeste 0.6 -- -- 100
2019-11-14 11:00:00 0.6 8 Sudoeste 30 Sudoeste 0.2 -- -- 100
2019-11-14 10:00:00 0.3 7 Sudoeste 17 Oeste 0 -- -- 100
2019-11-14 09:00:00 0.3 4 Oeste 22 Oeste 0 -- -- 100
2019-11-14 08:00:00 0.3 8 Noroeste 20 Oeste 0 -- -- 100
2019-11-14 07:00:00 0.2 4 Sudoeste 16 Noroeste 0 -- -- 100
2019-11-14 06:00:00 0.4 8 Norte 19 Norte 0 -- -- 99
2019-11-14 05:00:00 1.2 9 Noroeste 29 Noroeste 0 -- -- 99
2019-11-14 04:00:00 1.2 11 Noroeste 44 Norte 1.2 -- -- 100
2019-11-14 03:00:00 2.4 18 Noroeste 52 Noroeste 0.8 -- -- 97
2019-11-14 02:00:00 3.7 19 Noroeste 50 Oeste 0.6 -- -- 99
2019-11-14 01:00:00 4.8 14 Oeste 49 Noroeste 1.8 -- -- 100
2019-11-14 00:00:00 5.8 23 Oeste 65 Sudoeste 2.2 -- -- 100
2019-11-13 23:00:00 5.5 23 Sudoeste 53 Sudoeste 0.2 -- -- 98
2019-11-13 22:00:00 5.4 17 Sudoeste 43 Oeste 0.2 -- -- 100
2019-11-13 21:00:00 5.5 16 Sudoeste 39 Sudoeste 0 -- -- 98
2019-11-13 20:00:00 5.7 14 Oeste 29 Noroeste 0 -- -- 96
2019-11-13 19:00:00 6 10 Oeste 39 Noroeste 0 -- -- 95
2019-11-13 18:00:00 6.4 7 Oeste 21 Oeste 0 -- -- 93
2019-11-13 17:00:00 7.7 8 Oeste 23 Oeste 0 -- -- 91
2019-11-13 16:00:00 8.4 7 Sudoeste 20 Sudoeste 0 -- -- 89
2019-11-13 15:00:00 7.2 5 Noroeste 14 Noroeste 0 -- -- 97
2019-11-13 14:00:00 7.1 8 Noroeste 19 Norte 0 -- -- 98
2019-11-13 13:00:00 7.5 7 Noroeste 22 Norte 0 -- -- 98
2019-11-13 12:00:00 7.5 6 Noroeste 15 Noroeste 0 -- -- 100
2019-11-13 11:00:00 7.2 3 Norte 10 Noroeste 0.2 -- -- 100
2019-11-13 10:00:00 6.8 4 Nordeste 13 Norte 0 -- -- 100
2019-11-13 09:00:00 6.8 6 Norte 14 Nordeste 0.2 -- -- 100
2019-11-13 08:00:00 7.1 4 Norte 15 Noroeste 0 -- -- 100
2019-11-13 07:00:00 7.5 6 Norte 18 Norte 0 -- -- 100
2019-11-13 06:00:00 7.8 3 Noroeste 23 Norte 0.2 -- -- 100
2019-11-13 05:00:00 8.3 8 Norte 27 Oeste 1.4 -- -- 100
2019-11-13 04:00:00 10.1 14 Norte 41 Noroeste 4.6 -- -- 100
2019-11-13 03:00:00 10.7 18 Noroeste 42 Noroeste 8 -- -- 100
2019-11-13 02:00:00 10.7 10 Noroeste 34 Oeste 7.4 -- -- 100
2019-11-13 01:00:00 10.5 11 Oeste 31 Sudoeste 4.4 -- -- 100
2019-11-13 00:00:00 10.3 9 Oeste 30 Oeste 5.4 -- -- 100
2019-11-12 23:00:00 10.1 14 Sudoeste 33 Oeste 2.4 -- -- 100
2019-11-12 22:00:00 9.7 9 Sudoeste 26 Sudoeste 0.6 -- -- 100
2019-11-12 21:00:00 9.5 9 Sudoeste 35 Sudoeste 3 -- -- 100
2019-11-12 20:00:00 9 11 Sudoeste 35 Oeste 3.4 -- -- 100
2019-11-12 19:00:00 8.1 14 Sudoeste 40 Sudoeste 1.6 -- -- 100
2019-11-12 18:00:00 7.7 21 Sudoeste 53 Sur 0.4 -- -- 99
2019-11-12 17:00:00 7.3 24 Sudoeste 46 Sudoeste 0.2 -- -- 99
2019-11-12 16:00:00 7.2 21 Sudoeste 43 Sur 0.2 -- -- 100
2019-11-12 15:00:00 7.1 18 Sudoeste 39 Sur 0 -- -- 100
2019-11-12 14:00:00 6.5 6 Sudoeste 22 Oeste 0.2 -- -- 100
2019-11-12 13:00:00 6.1 8 Sur 17 Sur 0.6 -- -- 100
2019-11-12 12:00:00 5.4 7 Sur 18 Sudoeste 0.4 -- -- 100
2019-11-12 11:00:00 4.7 3 Sur 8 Sudoeste 0 -- -- 100
2019-11-12 10:00:00 4 2 Sudeste 8 Sudoeste 0 -- -- 100
2019-11-12 09:00:00 3.6 0 Calma 10 Sudeste 0 -- -- 100
2019-11-12 08:00:00 3.4 2 Sur 6 Sur 0 -- -- 100
2019-11-12 07:00:00 3.3 0 Calma 3 Noroeste 0 -- -- 100
2019-11-12 06:00:00 3.1 0 Calma 3 Noroeste 0 -- -- 100
2019-11-12 05:00:00 2.9 2 Sudeste 3 Sudeste 0 -- -- 100
2019-11-12 04:00:00 2.7 0 Calma 5 Sur 0 -- -- 100
2019-11-12 03:00:00 2.4 0 Calma 5 Sur 0 -- -- 100
2019-11-12 02:00:00 2.2 3 Sur 8 Sudeste 0 -- -- 100
2019-11-12 01:00:00 2.1 0 Calma 5 Sur 0 -- -- 100
2019-11-12 00:00:00 2.2 0 Calma 4 Sudeste 0 -- -- 100
2019-11-11 23:00:00 2.9 0 Calma 5 Norte 0 -- -- 99
2019-11-11 22:00:00 3.4 4 Norte 12 Nordeste 0 -- -- 99
2019-11-11 21:00:00 3.6 5 Norte 12 Nordeste 0 -- -- 98
2019-11-11 20:00:00 4.3 2 Norte 14 Nordeste 0 -- -- 98
2019-11-11 19:00:00 4.7 3 Norte 14 Oeste 0 -- -- 95
2019-11-11 18:00:00 5.1 2 Norte 19 Norte 0 -- -- 92
2019-11-11 17:00:00 6.3 4 Norte 21 Noroeste 0 -- -- 90
2019-11-11 16:00:00 6.7 9 Norte 26 Noroeste 0 -- -- 87
2019-11-11 15:00:00 7.4 9 Norte 29 Nordeste 0 -- -- 91
2019-11-11 14:00:00 7.3 11 Norte 29 Norte 0 -- -- 100
2019-11-11 13:00:00 6.5 12 Norte 32 Norte 0 -- -- 100
2019-11-11 12:00:00 6.8 10 Norte 31 Nordeste 0 -- -- 100
2019-11-11 11:00:00 7.9 8 Norte 22 Norte 0.2 -- -- 100
2019-11-11 10:00:00 8.3 9 Norte 24 Norte 1 -- -- 100
2019-11-11 09:00:00 8.7 11 Norte 24 Norte 1 -- -- 100
2019-11-11 08:00:00 9.1 10 Noroeste 24 Noroeste 0.6 -- -- 100
2019-11-11 07:00:00 8.9 9 Noroeste 19 Noroeste 0.6 -- -- 100
2019-11-11 06:00:00 8.5 4 Noroeste 22 Noroeste 0.8 -- -- 100
2019-11-11 05:00:00 7.1 2 Noroeste 4 Este 0.4 -- -- 100
2019-11-11 04:00:00 6.4 0 Calma 6 Sur 0.4 -- -- 100
2019-11-11 03:00:00 5.7 2 Sudeste 6 Sudeste 0.2 -- -- 100
2019-11-11 02:00:00 4.7 0 Calma 5 Sudeste 0.4 -- -- 100
2019-11-11 01:00:00 4.3 4 Sur 9 Sur 0.6 -- -- 100
2019-11-11 00:00:00 3.9 0 Calma 6 Sur 0.6 -- -- 100
2019-11-10 23:00:00 3.6 3 Sudeste 5 Sudeste 0.6 -- -- 100
2019-11-10 22:00:00 3.3 2 Sur 6 Sur 0.4 -- -- 100
2019-11-10 21:00:00 3.1 3 Sudoeste 7 Sudoeste 0.8 -- -- 100
2019-11-10 20:00:00 3 2 Sur 5 Sur 1.2 -- -- 100
2019-11-10 19:00:00 2.9 0 Calma 6 Nordeste 0.8 -- -- 100
2019-11-10 18:00:00 3 3 Nordeste 17 Norte 1 -- -- 100
2019-11-10 17:00:00 3.1 5 Norte 19 Norte 1.2 -- -- 100
2019-11-10 16:00:00 3 7 Norte 31 Norte 1.2 -- -- 100
2019-11-10 15:00:00 2.9 13 Norte 37 Norte 1.2 -- -- 100
2019-11-10 14:00:00 3 17 Norte 39 Noroeste 2 -- -- 100
2019-11-10 13:00:00 2.5 15 Noroeste 30 Noroeste 3.2 -- -- 100
2019-11-10 12:00:00 1.8 7 Norte 39 Norte 2 -- -- 97
2019-11-10 11:00:00 3.7 9 Noroeste 36 Noroeste 0.4 -- -- 99
2019-11-10 10:00:00 3.6 14 Noroeste 36 Noroeste 0 -- -- 99
2019-11-10 09:00:00 3.1 11 Norte 37 Norte 0 -- -- 100
2019-11-10 08:00:00 3 15 Noroeste 33 Norte 0 -- -- 99
2019-11-10 07:00:00 2.8 14 Noroeste 35 Noroeste 0.4 -- -- 100
2019-11-10 06:00:00 2.6 10 Noroeste 33 Noroeste 1.4 -- -- 99
2019-11-10 05:00:00 3.1 16 Noroeste 33 Noroeste 0 -- -- 100
2019-11-10 04:00:00 2.5 5 Noroeste 28 Norte 1.4 -- -- 99
2019-11-10 03:00:00 2.9 7 Noroeste 22 Norte 0 -- -- 97
2019-11-10 02:00:00 3 8 Norte 28 Norte 0 -- -- 97
2019-11-10 01:00:00 3.3 11 Noroeste 25 Noroeste 0 -- -- 98
2019-11-10 00:00:00 3.4 9 Norte 28 Noroeste 0 -- -- 97
2019-11-09 23:00:00 3.4 12 Norte 55 Noroeste 0.4 -- -- 97
2019-11-09 22:00:00 4.5 19 Noroeste 50 Noroeste 0.6 -- -- 98
2019-11-09 21:00:00 5 18 Noroeste 33 Oeste 2.8 -- -- 99
2019-11-09 20:00:00 5.1 6 Noroeste 26 Norte 0 -- -- 96
2019-11-09 19:00:00 5.6 9 Noroeste 23 Noroeste 0 -- -- 96
2019-11-09 18:00:00 5.8 10 Noroeste 30 Norte 0 -- -- 93
2019-11-09 17:00:00 7 14 Noroeste 35 Noroeste 0 -- -- 92
2019-11-09 16:00:00 7.9 17 Noroeste 37 Noroeste 0 -- -- 91
2019-11-09 15:00:00 8.1 12 Noroeste 29 Noroeste 0.2 -- -- 97
2019-11-09 14:00:00 8.3 13 Norte 24 Norte 0.4 -- -- 99
2019-11-09 13:00:00 8.6 7 Oeste 23 Oeste 0.4 -- -- 100
2019-11-09 12:00:00 7.9 0 Calma 9 Sur 1.4 -- -- 100
2019-11-09 11:00:00 7.1 5 Sudoeste 14 Oeste 2 -- -- 100
2019-11-09 10:00:00 6.5 3 Oeste 26 Sudoeste 0.8 -- -- 100
2019-11-09 09:00:00 5.9 10 Sudoeste 36 Sudoeste 0.2 -- -- 100
2019-11-09 08:00:00 5.4 16 Sudoeste 32 Sudoeste 1.2 -- -- 100
2019-11-09 07:00:00 4.3 14 Sur 27 Sur 0.6 -- -- 100
2019-11-09 06:00:00 3.7 12 Sur 19 Sur 0.8 -- -- 100
2019-11-09 05:00:00 3.5 8 Sur 13 Sudeste 0 -- -- 97
2019-11-09 04:00:00 3.4 7 Sur 14 Sudoeste 0 -- -- 98
2019-11-09 03:00:00 3.2 5 Sudoeste 16 Sudeste 0 -- -- 98
2019-11-09 02:00:00 3.1 8 Sur 17 Sur 0 -- -- 99
2019-11-09 01:00:00 3.1 2 Sur 6 Noroeste 0 -- -- 99
2019-11-09 00:00:00 3.3 2 Sudoeste 5 Sur 0 -- -- 99
2019-11-08 23:00:00 3.2 2 Nordeste 12 Norte 0.2 -- -- 100
2019-11-08 22:00:00 3.3 0 Calma 8 Noroeste 0 -- -- 99
2019-11-08 21:00:00 3.1 4 Noroeste 9 Noroeste 0 -- -- 98
2019-11-08 20:00:00 3 0 Calma 13 Noroeste 0 -- -- 98
2019-11-08 19:00:00 3.2 6 Noroeste 21 Noroeste 0 -- -- 97
2019-11-08 18:00:00 3.5 3 Oeste 23 Noroeste 0 -- -- 98
2019-11-08 17:00:00 3.8 7 Noroeste 25 Noroeste 0.4 -- -- 95
2019-11-08 16:00:00 4.4 6 Noroeste 23 Noroeste 0.6 -- -- 98
2019-11-08 15:00:00 4.7 12 Noroeste 29 Oeste 0.2 -- -- 94
2019-11-08 14:00:00 4.7 12 Norte 33 Noroeste 0 -- -- 97
2019-11-08 13:00:00 3.6 10 Noroeste 27 Noroeste 0.8 -- -- 100
2019-11-08 12:00:00 2.2 0 Calma 12 Sudeste 1 -- -- 100
2019-11-08 11:00:00 1.1 0 Calma 6 Sudeste 1 -- -- 100
2019-11-08 10:00:00 0.8 2 Sudeste 9 Sur 1 -- -- 100
2019-11-08 09:00:00 0.5 0 Calma 12 Noroeste 0 -- -- 100
2019-11-08 08:00:00 0.9 3 Noroeste 14 Noroeste 1.2 -- -- 100
2019-11-08 07:00:00 0.8 2 Noroeste 10 Oeste 0.2 -- -- 100
2019-11-08 06:00:00 0.8 4 Oeste 12 Oeste 0.6 -- -- 100
2019-11-08 05:00:00 0.7 0 Calma 21 Noroeste 0.6 -- -- 100
2019-11-08 04:00:00 0.8 3 Noroeste 23 Noroeste 0.6 -- -- 100
2019-11-08 03:00:00 0.8 12 Noroeste 25 Noroeste 1 -- -- 100
2019-11-08 02:00:00 0.6 5 Noroeste 18 Oeste 0.2 -- -- 100
2019-11-08 01:00:00 1.1 4 Oeste 18 Oeste 0.4 -- -- 100
2019-11-08 00:00:00 1 5 Oeste 18 Sudoeste 0.4 -- -- 100
2019-11-07 23:00:00 1.1 4 Oeste 17 Noroeste 0.2 -- -- 100
2019-11-07 22:00:00 1.2 10 Noroeste 24 Noroeste 0.4 -- -- 99
2019-11-07 21:00:00 1.3 5 Oeste 21 Noroeste 0.6 -- -- 100
2019-11-07 20:00:00 1.4 10 Oeste 30 Oeste 0.6 -- -- 100
2019-11-07 19:00:00 1.4 8 Oeste 21 Oeste 0.8 -- -- 100
2019-11-07 18:00:00 1 5 Sudoeste 14 Sudoeste 0.2 -- -- 100
2019-11-07 17:00:00 0.8 8 Noroeste 28 Oeste 1.8 -- -- 99
2019-11-07 16:00:00 1.1 0 Calma 12 Sur 0.4 -- -- 100
2019-11-07 15:00:00 0.6 5 Noroeste 35 Norte 1 -- -- 98
2019-11-07 14:00:00 3.8 7 Oeste 31 Oeste 0.2 -- -- 97
2019-11-07 13:00:00 3 7 Noroeste 33 Noroeste 1 -- -- 100
2019-11-07 12:00:00 3.4 10 Oeste 37 Sudoeste 0.4 -- -- 98
2019-11-07 11:00:00 3.7 9 Oeste 32 Oeste 0 -- -- 96
2019-11-07 10:00:00 3.5 8 Oeste 28 Oeste 0 -- -- 96
2019-11-07 09:00:00 3.1 7 Noroeste 24 Noroeste 0 -- -- 97
2019-11-07 08:00:00 3.1 12 Noroeste 30 Noroeste 0 -- -- 96
2019-11-07 07:00:00 3.4 9 Noroeste 34 Noroeste 0 -- -- 98
2019-11-07 06:00:00 3.6 12 Noroeste 28 Oeste 0 -- -- 99
2019-11-07 05:00:00 3.8 15 Noroeste 36 Noroeste 0.8 -- -- 100
2019-11-07 04:00:00 4.2 14 Noroeste 30 Noroeste 0.2 -- -- 99
2019-11-07 03:00:00 4.5 10 Noroeste 31 Noroeste 0 -- -- 99
2019-11-07 02:00:00 5.3 9 Norte 33 Noroeste 0.4 -- -- 100
2019-11-07 01:00:00 6 8 Norte 35 Norte 0 -- -- 100
2019-11-07 00:00:00 6.8 16 Norte 34 Norte 0.2 -- -- 99
2019-11-06 23:00:00 8.8 12 Noroeste 29 Noroeste 1.8 -- -- 100
2019-11-06 22:00:00 8.9 8 Oeste 21 Oeste 1 -- -- 100
2019-11-06 21:00:00 8.6 4 Sudoeste 14 Oeste 0.4 -- -- 100
2019-11-06 20:00:00 8.6 6 Sudoeste 13 Sudoeste 0.2 -- -- 100
2019-11-06 19:00:00 8.6 8 Sudoeste 18 Oeste 0 -- -- 99
2019-11-06 18:00:00 8.6 9 Sudoeste 28 Sudoeste 0.4 -- -- 97
2019-11-06 17:00:00 8.8 19 Sudoeste 30 Sudoeste 0.2 -- -- 95
2019-11-06 16:00:00 8.9 13 Sudoeste 30 Oeste 0 -- -- 95
2019-11-06 15:00:00 9.2 9 Sudoeste 22 Sudoeste 0 -- -- 94
2019-11-06 14:00:00 8.1 10 Sudoeste 24 Sudoeste 0 -- -- 97
2019-11-06 13:00:00 7.8 7 Sudoeste 13 Sudoeste 0 -- -- 100
2019-11-06 12:00:00 6.5 2 Sudoeste 14 Sudoeste 0.2 -- -- 100
2019-11-06 11:00:00 6.1 4 Sudeste 8 Sudeste 0 -- -- 100
2019-11-06 10:00:00 5.7 2 Sudoeste 12 Oeste 0 -- -- 100
2019-11-06 09:00:00 5.4 5 Oeste 11 Noroeste 0 -- -- 100
2019-11-06 08:00:00 5.4 3 Oeste 12 Oeste 0 -- -- 100
2019-11-06 07:00:00 5.4 3 Noroeste 15 Oeste 0.2 -- -- 100
2019-11-06 06:00:00 5.3 2 Oeste 9 Oeste 0.4 -- -- 100
2019-11-06 05:00:00 5.3 2 Noroeste 15 Noroeste 0 -- -- 100
2019-11-06 04:00:00 5.3 6 Noroeste 14 Norte 0 -- -- 100
2019-11-06 03:00:00 5.3 5 Norte 21 Noroeste 0 -- -- 100
2019-11-06 02:00:00 5.5 8 Norte 23 Norte 0.8 -- -- 100
2019-11-06 01:00:00 5.5 4 Norte 22 Noroeste 0.4 -- -- 100
2019-11-06 00:00:00 5.5 8 Norte 25 Norte 0 -- -- 99